createdAt,value
2023-02-01T00:00:48.593Z,623.71
2023-02-01T00:01:48.600Z,623.75
2023-02-01T00:02:48.603Z,623.75
2023-02-01T00:03:48.704Z,623.72
2023-02-01T00:04:48.554Z,623.63
2023-02-01T00:05:48.545Z,623.60
2023-02-01T00:06:48.527Z,623.51
2023-02-01T00:07:48.519Z,623.60
2023-02-01T00:08:48.518Z,623.63
2023-02-01T00:09:48.516Z,623.65
2023-02-01T00:10:48.499Z,623.74
2023-02-01T00:11:48.487Z,623.86
2023-02-01T00:12:48.472Z,623.98
2023-02-01T00:13:48.470Z,623.86
2023-02-01T00:14:48.438Z,623.82
2023-02-01T00:15:48.485Z,623.91
2023-02-01T00:16:48.434Z,624.00
2023-02-01T00:17:48.427Z,624.02
2023-02-01T00:18:48.395Z,623.92
2023-02-01T00:19:48.410Z,623.87
2023-02-01T00:20:48.389Z,623.90
2023-02-01T00:21:48.367Z,623.86
2023-02-01T00:22:48.361Z,623.84
2023-02-01T00:23:48.364Z,623.77
2023-02-01T00:24:48.358Z,623.77
2023-02-01T00:25:48.318Z,623.86
2023-02-01T00:26:48.370Z,623.95
2023-02-01T00:27:48.315Z,623.86
2023-02-01T00:28:48.292Z,623.77
2023-02-01T00:29:48.294Z,623.71
2023-02-01T00:30:48.322Z,623.72
2023-02-01T00:31:48.288Z,623.72
2023-02-01T00:32:48.242Z,623.74
2023-02-01T00:33:48.232Z,623.77
2023-02-01T00:34:48.236Z,623.86
2023-02-01T00:35:48.240Z,623.92
2023-02-01T00:36:48.204Z,623.91
2023-02-01T00:37:48.190Z,623.83
2023-02-01T00:38:48.185Z,623.80
2023-02-01T00:39:48.179Z,623.87
2023-02-01T00:40:48.166Z,623.89
2023-02-01T00:41:48.149Z,624.02
2023-02-01T00:42:48.135Z,623.98
2023-02-01T00:43:55.134Z,623.86
2023-02-01T00:44:48.143Z,623.72
2023-02-01T00:45:48.104Z,623.70
2023-02-01T00:46:48.202Z,623.66
2023-02-01T00:47:48.080Z,623.70
2023-02-01T00:48:48.064Z,623.70
2023-02-01T00:49:48.075Z,623.93
2023-02-01T00:50:48.047Z,623.90
2023-02-01T00:51:48.061Z,623.95
2023-02-01T00:52:48.040Z,623.85
2023-02-01T00:53:48.030Z,623.77
2023-02-01T00:54:48.004Z,623.69
2023-02-01T00:55:48.014Z,623.78
2023-02-01T00:56:47.985Z,623.83
2023-02-01T00:57:47.973Z,623.82
2023-02-01T00:58:47.957Z,623.78
2023-02-01T00:59:47.955Z,623.75
2023-02-01T01:00:47.991Z,623.72
2023-02-01T01:01:47.967Z,623.75
2023-02-01T01:02:47.917Z,623.77
2023-02-01T01:03:47.908Z,623.82
2023-02-01T01:04:47.891Z,623.89
2023-02-01T01:05:47.891Z,623.96
2023-02-01T01:06:47.885Z,624.00
2023-02-01T01:07:47.895Z,623.94
2023-02-01T01:08:47.852Z,623.92
2023-02-01T01:09:47.843Z,623.83
2023-02-01T01:10:47.839Z,623.75
2023-02-01T01:11:47.829Z,623.73
2023-02-01T01:12:47.801Z,623.79
2023-02-01T01:13:48.465Z,623.88
2023-02-01T01:14:47.785Z,623.91
2023-02-01T01:15:47.823Z,623.92
2023-02-01T01:16:47.770Z,623.93
2023-02-01T01:17:47.756Z,623.86
2023-02-01T01:18:47.743Z,623.75
2023-02-01T01:19:47.749Z,623.68
2023-02-01T01:20:47.719Z,623.81
2023-02-01T01:21:47.737Z,623.82
2023-02-01T01:22:47.734Z,623.74
2023-02-01T01:23:47.721Z,623.70
2023-02-01T01:24:47.675Z,623.70
2023-02-01T01:25:47.668Z,623.86
2023-02-01T01:26:47.712Z,623.90
2023-02-01T01:27:47.657Z,623.84
2023-02-01T01:28:47.654Z,623.91
2023-02-01T01:29:47.619Z,623.81
2023-02-01T01:30:47.679Z,623.75
2023-02-01T01:31:47.654Z,623.74
2023-02-01T01:32:47.586Z,623.74
2023-02-01T01:33:47.612Z,623.72
2023-02-01T01:34:47.564Z,623.72
2023-02-01T01:35:47.563Z,623.66
2023-02-01T01:36:47.565Z,623.68
2023-02-01T01:37:47.549Z,623.67
2023-02-01T01:38:47.554Z,623.71
2023-02-01T01:39:47.554Z,623.75
2023-02-01T01:40:47.538Z,623.74
2023-02-01T01:41:47.519Z,623.68
2023-02-01T01:42:47.512Z,623.68
2023-02-01T01:43:47.474Z,623.68
2023-02-01T01:44:47.471Z,623.68
2023-02-01T01:45:47.448Z,623.63
2023-02-01T01:46:47.468Z,623.63
2023-02-01T01:47:47.437Z,623.61
2023-02-01T01:48:47.423Z,623.65
2023-02-01T01:49:47.422Z,623.68
2023-02-01T01:50:47.395Z,623.66
2023-02-01T01:51:47.393Z,623.63
2023-02-01T01:52:47.384Z,623.70
2023-02-01T01:53:47.425Z,623.70
2023-02-01T01:54:47.381Z,623.70
2023-02-01T01:55:47.362Z,623.67
2023-02-01T01:56:47.330Z,623.63
2023-02-01T01:57:47.320Z,623.72
2023-02-01T01:58:47.315Z,623.68
2023-02-01T01:59:47.309Z,623.70
2023-02-01T02:00:47.341Z,623.60
2023-02-01T02:01:47.312Z,623.65
2023-02-01T02:02:47.281Z,623.67
2023-02-01T02:03:47.289Z,623.63
2023-02-01T02:04:47.260Z,623.69
2023-02-01T02:05:47.231Z,623.79
2023-02-01T02:06:47.217Z,623.72
2023-02-01T02:07:47.221Z,623.71
2023-02-01T02:08:47.200Z,623.77
2023-02-01T02:09:59.451Z,623.77
2023-02-01T02:10:47.199Z,623.69
2023-02-01T02:11:47.200Z,623.62
2023-02-01T02:12:47.162Z,623.63
2023-02-01T02:13:47.149Z,623.69
2023-02-01T02:14:47.152Z,623.72
2023-02-01T02:15:47.134Z,623.73
2023-02-01T02:16:47.121Z,623.85
2023-02-01T02:17:47.105Z,623.85
2023-02-01T02:18:47.109Z,623.87
2023-02-01T02:19:47.085Z,623.90
2023-02-01T02:20:47.072Z,624.01
2023-02-01T02:21:47.074Z,624.07
2023-02-01T02:22:47.060Z,624.08
2023-02-01T02:23:47.042Z,624.01
2023-02-01T02:24:47.024Z,623.92
2023-02-01T02:25:47.028Z,623.87
2023-02-01T02:26:47.055Z,623.87
2023-02-01T02:27:47.036Z,624.02
2023-02-01T02:28:46.994Z,623.96
2023-02-01T02:29:46.982Z,624.00
2023-02-01T02:30:46.991Z,624.01
2023-02-01T02:31:47.013Z,623.98
2023-02-01T02:32:46.968Z,623.88
2023-02-01T02:33:46.939Z,623.84
2023-02-01T02:34:46.919Z,623.74
2023-02-01T02:35:46.906Z,623.74
2023-02-01T02:36:46.890Z,623.85
2023-02-01T02:37:46.899Z,623.91
2023-02-01T02:38:46.879Z,623.86
2023-02-01T02:39:46.874Z,623.84
2023-02-01T02:40:46.847Z,623.78
2023-02-01T02:41:46.850Z,623.85
2023-02-01T02:42:46.850Z,623.84
2023-02-01T02:43:46.840Z,623.84
2023-02-01T02:44:54.338Z,623.93
2023-02-01T02:45:46.825Z,623.88
2023-02-01T02:46:46.796Z,623.99
2023-02-01T02:47:46.774Z,624.02
2023-02-01T02:48:46.759Z,624.05
2023-02-01T02:49:46.753Z,623.95
2023-02-01T02:50:46.759Z,623.99
2023-02-01T02:51:46.731Z,623.92
2023-02-01T02:52:46.735Z,623.82
2023-02-01T02:53:46.738Z,623.77
2023-02-01T02:54:46.707Z,623.74
2023-02-01T02:55:46.685Z,623.79
2023-02-01T02:56:46.693Z,623.87
2023-02-01T02:57:46.666Z,623.83
2023-02-01T02:58:46.662Z,623.84
2023-02-01T02:59:46.675Z,623.83
2023-02-01T03:00:46.666Z,623.82
2023-02-01T03:01:46.621Z,623.85
2023-02-01T03:02:46.717Z,623.91
2023-02-01T03:03:46.599Z,624.02
2023-02-01T03:04:46.590Z,624.05
2023-02-01T03:05:46.589Z,623.95
2023-02-01T03:06:46.580Z,623.96
2023-02-01T03:07:46.571Z,624.05
2023-02-01T03:08:46.552Z,624.01
2023-02-01T03:09:46.538Z,623.91
2023-02-01T03:10:46.528Z,623.97
2023-02-01T03:11:46.515Z,623.95
2023-02-01T03:12:46.537Z,624.02
2023-02-01T03:13:46.495Z,624.04
2023-02-01T03:14:46.507Z,624.11
2023-02-01T03:15:46.504Z,624.07
2023-02-01T03:16:46.513Z,624.04
2023-02-01T03:17:46.465Z,623.98
2023-02-01T03:18:46.437Z,623.97
2023-02-01T03:19:46.432Z,623.93
2023-02-01T03:20:46.416Z,623.91
2023-02-01T03:21:46.422Z,623.97
2023-02-01T03:22:46.406Z,623.99
2023-02-01T03:23:46.392Z,623.98
2023-02-01T03:24:46.387Z,623.92
2023-02-01T03:25:46.360Z,623.91
2023-02-01T03:26:46.372Z,623.86
2023-02-01T03:27:46.342Z,623.88
2023-02-01T03:28:46.339Z,623.94
2023-02-01T03:29:46.330Z,623.94
2023-02-01T03:30:46.331Z,623.96
2023-02-01T03:31:46.407Z,623.96
2023-02-01T03:32:46.285Z,623.93
2023-02-01T03:33:46.286Z,623.94
2023-02-01T03:34:46.269Z,623.97
2023-02-01T03:35:46.264Z,623.90
2023-02-01T03:36:46.244Z,623.86
2023-02-01T03:37:46.223Z,623.79
2023-02-01T03:38:46.243Z,623.86
2023-02-01T03:39:46.201Z,623.86
2023-02-01T03:40:46.213Z,623.95
2023-02-01T03:41:46.200Z,624.04
2023-02-01T03:42:46.206Z,624.01
2023-02-01T03:43:46.159Z,623.91
2023-02-01T22:45:07.811Z,622.14
2023-02-01T22:46:07.803Z,622.48
2023-02-01T22:47:07.750Z,622.62
2023-02-01T22:48:07.747Z,622.71
2023-02-01T22:49:07.741Z,622.76
2023-02-01T22:50:07.716Z,622.81
2023-02-01T22:51:07.703Z,622.86
2023-02-01T22:52:07.694Z,622.86
2023-02-01T22:53:07.683Z,622.95
2023-02-01T22:54:07.701Z,623.00
2023-02-01T22:55:07.655Z,622.99
2023-02-01T22:56:07.681Z,623.02
2023-02-01T22:57:08.034Z,623.04
2023-02-01T22:58:07.625Z,623.03
2023-02-01T22:59:07.642Z,623.07
2023-02-01T23:00:07.599Z,1303.61
2023-02-01T23:01:07.622Z,1303.61
2023-02-01T23:02:07.580Z,1303.61
2023-02-01T23:03:07.604Z,1303.61
2023-02-01T23:04:07.563Z,1303.61
2023-02-01T23:05:07.544Z,1303.61
2023-02-01T23:06:07.541Z,1303.61
2023-02-01T23:07:07.519Z,1303.61
2023-02-01T23:08:07.507Z,1303.61
2023-02-01T23:09:07.502Z,1303.61
2023-02-01T23:10:07.510Z,1303.61
2023-02-01T23:11:07.470Z,1303.61
2023-02-01T23:12:07.461Z,1303.61
2023-02-01T23:13:07.461Z,1303.61
2023-02-01T23:14:07.436Z,1303.61
2023-02-01T23:15:07.435Z,1303.61
2023-02-01T23:16:07.509Z,1303.61
2023-02-01T23:17:07.420Z,1303.61
2023-02-01T23:18:07.392Z,1303.61
2023-02-01T23:19:07.387Z,1303.61
2023-02-01T23:20:07.381Z,1303.61
2023-02-01T23:21:07.367Z,1303.61
2023-02-01T23:22:07.350Z,1303.61
2023-02-01T23:23:07.336Z,1303.61
2023-02-01T23:24:07.370Z,1303.61
2023-02-01T23:25:07.319Z,1303.61
2023-02-01T23:26:07.348Z,1303.61
2023-02-01T23:27:07.296Z,1303.61
2023-02-01T23:28:07.290Z,1303.61
2023-02-01T23:29:07.269Z,1303.61
2023-02-01T23:30:07.265Z,1303.61
2023-02-01T23:31:07.329Z,1303.61
2023-02-01T23:32:07.257Z,1303.61
2023-02-01T23:33:07.256Z,1303.61
2023-02-01T23:34:07.228Z,1303.61
2023-02-01T23:35:07.321Z,1303.61
2023-02-01T23:36:07.194Z,1303.61
2023-02-01T23:37:07.189Z,1303.61
2023-02-01T23:38:07.178Z,1303.61
2023-02-01T23:39:07.177Z,1303.61
2023-02-01T23:40:07.156Z,1303.61
2023-02-01T23:41:07.156Z,1303.61
2023-02-01T23:42:07.139Z,1303.61
2023-02-01T23:43:07.115Z,1303.61
2023-02-01T23:44:07.143Z,1303.61
2023-02-01T23:45:07.105Z,1303.61
2023-02-01T23:46:07.180Z,1303.61
2023-02-01T23:47:07.071Z,1303.61
2023-02-01T23:48:07.064Z,1303.61
2023-02-01T23:49:07.080Z,1303.61
2023-02-01T23:50:07.042Z,1303.61
2023-02-01T23:51:07.031Z,1303.61
2023-02-01T23:52:07.019Z,1303.61
2023-02-01T23:53:07.029Z,1303.61
2023-02-01T23:54:07.018Z,1303.61
2023-02-01T23:55:06.981Z,1303.61
2023-02-01T23:56:06.973Z,1303.61
2023-02-01T23:57:06.961Z,1303.61
2023-02-01T23:58:06.960Z,1303.61
2023-02-01T23:59:06.964Z,1303.61
